sensor_id;sensor_type;location;lat;lon;timestamp;P1;durP1;ratioP1;P2;durP2;ratioP2
75104;SDS011;64778;47.314;8.466;2022-12-07T00:03:35;37.38;;;17.02;;
75104;SDS011;64778;47.314;8.466;2022-12-07T00:06:01;36.47;;;17.27;;
75104;SDS011;64778;47.314;8.466;2022-12-07T00:08:28;36.60;;;16.83;;
75104;SDS011;64778;47.314;8.466;2022-12-07T00:13:30;38.00;;;16.30;;
75104;SDS011;64778;47.314;8.466;2022-12-07T00:15:59;41.42;;;17.02;;
75104;SDS011;64778;47.314;8.466;2022-12-07T00:18:30;37.30;;;18.20;;
75104;SDS011;64778;47.314;8.466;2022-12-07T00:21:01;38.90;;;17.42;;
75104;SDS011;64778;47.314;8.466;2022-12-07T00:23:38;39.42;;;17.08;;
75104;SDS011;64778;47.314;8.466;2022-12-07T00:28:31;33.47;;;16.30;;
75104;SDS011;64778;47.314;8.466;2022-12-07T00:31:00;36.55;;;18.02;;
75104;SDS011;64778;47.314;8.466;2022-12-07T00:33:29;33.50;;;15.38;;
75104;SDS011;64778;47.314;8.466;2022-12-07T00:35:58;33.58;;;15.57;;
75104;SDS011;64778;47.314;8.466;2022-12-07T00:38:24;32.83;;;15.35;;
75104;SDS011;64778;47.314;8.466;2022-12-07T00:40:54;32.83;;;17.05;;
75104;SDS011;64778;47.314;8.466;2022-12-07T00:43:26;31.88;;;14.73;;
75104;SDS011;64778;47.314;8.466;2022-12-07T00:45:52;32.03;;;15.60;;
75104;SDS011;64778;47.314;8.466;2022-12-07T00:48:19;30.55;;;15.32;;
75104;SDS011;64778;47.314;8.466;2022-12-07T00:50:45;29.60;;;14.70;;
75104;SDS011;64778;47.314;8.466;2022-12-07T00:53:14;31.67;;;15.55;;
75104;SDS011;64778;47.314;8.466;2022-12-07T00:58:05;32.25;;;15.55;;
75104;SDS011;64778;47.314;8.466;2022-12-07T01:00:31;30.42;;;14.60;;
75104;SDS011;64778;47.314;8.466;2022-12-07T01:03:00;32.35;;;15.50;;
75104;SDS011;64778;47.314;8.466;2022-12-07T01:05:25;34.67;;;16.27;;
75104;SDS011;64778;47.314;8.466;2022-12-07T01:07:53;33.08;;;16.02;;
75104;SDS011;64778;47.314;8.466;2022-12-07T01:10:19;28.55;;;15.20;;
75104;SDS011;64778;47.314;8.466;2022-12-07T01:12:44;32.20;;;14.77;;
75104;SDS011;64778;47.314;8.466;2022-12-07T01:17:36;31.17;;;15.55;;
75104;SDS011;64778;47.314;8.466;2022-12-07T01:20:02;37.90;;;15.43;;
75104;SDS011;64778;47.314;8.466;2022-12-07T01:22:28;33.55;;;15.73;;
75104;SDS011;64778;47.314;8.466;2022-12-07T01:24:56;34.63;;;16.55;;
75104;SDS011;64778;47.314;8.466;2022-12-07T01:27:22;35.38;;;16.73;;
75104;SDS011;64778;47.314;8.466;2022-12-07T01:29:48;32.05;;;15.80;;
75104;SDS011;64778;47.314;8.466;2022-12-07T01:32:13;37.25;;;16.98;;
75104;SDS011;64778;47.314;8.466;2022-12-07T01:37:07;33.10;;;16.00;;
75104;SDS011;64778;47.314;8.466;2022-12-07T01:39:35;35.97;;;15.13;;
75104;SDS011;64778;47.314;8.466;2022-12-07T01:42:00;34.72;;;15.98;;
75104;SDS011;64778;47.314;8.466;2022-12-07T01:44:27;32.72;;;14.38;;
75104;SDS011;64778;47.314;8.466;2022-12-07T01:47:01;32.92;;;15.70;;
75104;SDS011;64778;47.314;8.466;2022-12-07T01:49:35;32.20;;;14.77;;
75104;SDS011;64778;47.314;8.466;2022-12-07T01:54:43;32.70;;;15.30;;
75104;SDS011;64778;47.314;8.466;2022-12-07T01:57:10;36.22;;;15.88;;
75104;SDS011;64778;47.314;8.466;2022-12-07T01:59:38;30.85;;;15.48;;
75104;SDS011;64778;47.314;8.466;2022-12-07T02:02:07;32.45;;;14.90;;
75104;SDS011;64778;47.314;8.466;2022-12-07T02:04:39;34.42;;;15.60;;
75104;SDS011;64778;47.314;8.466;2022-12-07T02:07:05;31.55;;;14.77;;
75104;SDS011;64778;47.314;8.466;2022-12-07T02:09:31;33.47;;;15.45;;
75104;SDS011;64778;47.314;8.466;2022-12-07T02:11:58;33.28;;;15.73;;
75104;SDS011;64778;47.314;8.466;2022-12-07T02:14:24;31.15;;;15.27;;
75104;SDS011;64778;47.314;8.466;2022-12-07T02:32:26;29.55;;;14.10;;
75104;SDS011;64778;47.314;8.466;2022-12-07T02:35:19;28.83;;;13.73;;
75104;SDS011;64778;47.314;8.466;2022-12-07T02:40:33;28.30;;;13.50;;
75104;SDS011;64778;47.314;8.466;2022-12-07T02:45:34;30.75;;;14.60;;
75104;SDS011;64778;47.314;8.466;2022-12-07T02:48:03;28.00;;;13.55;;
75104;SDS011;64778;47.314;8.466;2022-12-07T02:50:30;28.52;;;14.07;;
75104;SDS011;64778;47.314;8.466;2022-12-07T02:52:58;29.38;;;13.88;;
75104;SDS011;64778;47.314;8.466;2022-12-07T02:55:26;25.60;;;12.95;;
75104;SDS011;64778;47.314;8.466;2022-12-07T03:00:30;25.63;;;12.77;;
75104;SDS011;64778;47.314;8.466;2022-12-07T03:03:00;28.05;;;13.52;;
75104;SDS011;64778;47.314;8.466;2022-12-07T03:15:58;25.13;;;12.18;;
75104;SDS011;64778;47.314;8.466;2022-12-07T03:18:32;27.90;;;13.50;;
75104;SDS011;64778;47.314;8.466;2022-12-07T03:21:11;25.73;;;12.95;;
75104;SDS011;64778;47.314;8.466;2022-12-07T03:23:42;24.95;;;13.07;;
75104;SDS011;64778;47.314;8.466;2022-12-07T03:26:15;25.15;;;12.95;;
75104;SDS011;64778;47.314;8.466;2022-12-07T03:28:48;24.30;;;11.95;;
75104;SDS011;64778;47.314;8.466;2022-12-07T03:31:29;24.65;;;12.55;;
75104;SDS011;64778;47.314;8.466;2022-12-07T03:36:49;28.52;;;13.32;;
75104;SDS011;64778;47.314;8.466;2022-12-07T03:39:22;26.63;;;13.05;;
75104;SDS011;64778;47.314;8.466;2022-12-07T03:41:52;28.02;;;12.88;;
75104;SDS011;64778;47.314;8.466;2022-12-07T03:44:22;27.17;;;12.77;;
75104;SDS011;64778;47.314;8.466;2022-12-07T03:47:02;26.88;;;13.68;;
75104;SDS011;64778;47.314;8.466;2022-12-07T03:55:20;24.63;;;11.68;;
75104;SDS011;64778;47.314;8.466;2022-12-07T03:57:56;27.33;;;12.85;;
75104;SDS011;64778;47.314;8.466;2022-12-07T04:00:31;24.77;;;12.52;;
75104;SDS011;64778;47.314;8.466;2022-12-07T04:02:57;25.55;;;12.48;;
75104;SDS011;64778;47.314;8.466;2022-12-07T04:05:23;27.73;;;12.23;;
75104;SDS011;64778;47.314;8.466;2022-12-07T04:10:15;23.85;;;11.63;;
75104;SDS011;64778;47.314;8.466;2022-12-07T04:12:43;24.48;;;11.60;;
75104;SDS011;64778;47.314;8.466;2022-12-07T04:15:08;25.45;;;12.18;;
75104;SDS011;64778;47.314;8.466;2022-12-07T04:20:00;25.20;;;11.70;;
75104;SDS011;64778;47.314;8.466;2022-12-07T04:22:26;25.50;;;12.70;;
75104;SDS011;64778;47.314;8.466;2022-12-07T04:24:51;26.15;;;12.73;;
75104;SDS011;64778;47.314;8.466;2022-12-07T04:27:20;26.60;;;12.05;;
75104;SDS011;64778;47.314;8.466;2022-12-07T04:29:45;26.08;;;12.60;;
75104;SDS011;64778;47.314;8.466;2022-12-07T04:32:13;32.40;;;13.15;;
75104;SDS011;64778;47.314;8.466;2022-12-07T04:34:39;27.25;;;12.52;;
75104;SDS011;64778;47.314;8.466;2022-12-07T04:37:05;25.08;;;11.85;;
75104;SDS011;64778;47.314;8.466;2022-12-07T04:39:31;22.38;;;11.13;;
75104;SDS011;64778;47.314;8.466;2022-12-07T04:42:01;25.27;;;12.02;;
75104;SDS011;64778;47.314;8.466;2022-12-07T04:44:29;24.60;;;11.95;;
75104;SDS011;64778;47.314;8.466;2022-12-07T04:49:23;25.67;;;12.10;;
75104;SDS011;64778;47.314;8.466;2022-12-07T04:51:50;24.05;;;12.15;;
75104;SDS011;64778;47.314;8.466;2022-12-07T04:54:16;27.02;;;12.15;;
75104;SDS011;64778;47.314;8.466;2022-12-07T04:56:42;27.25;;;12.55;;
75104;SDS011;64778;47.314;8.466;2022-12-07T04:59:09;26.25;;;13.40;;
75104;SDS011;64778;47.314;8.466;2022-12-07T05:01:38;23.42;;;12.07;;
75104;SDS011;64778;47.314;8.466;2022-12-07T05:04:04;27.05;;;12.55;;
75104;SDS011;64778;47.314;8.466;2022-12-07T05:06:30;26.83;;;12.82;;
75104;SDS011;64778;47.314;8.466;2022-12-07T05:09:00;25.42;;;12.00;;
75104;SDS011;64778;47.314;8.466;2022-12-07T05:11:26;26.83;;;12.73;;
75104;SDS011;64778;47.314;8.466;2022-12-07T05:14:25;27.20;;;12.35;;
75104;SDS011;64778;47.314;8.466;2022-12-07T05:16:50;23.90;;;11.55;;
75104;SDS011;64778;47.314;8.466;2022-12-07T05:19:17;24.45;;;12.55;;
75104;SDS011;64778;47.314;8.466;2022-12-07T05:21:44;26.90;;;12.25;;
75104;SDS011;64778;47.314;8.466;2022-12-07T05:24:13;25.58;;;12.25;;
75104;SDS011;64778;47.314;8.466;2022-12-07T05:26:41;23.63;;;11.63;;
75104;SDS011;64778;47.314;8.466;2022-12-07T05:29:07;24.60;;;12.35;;
75104;SDS011;64778;47.314;8.466;2022-12-07T05:31:37;24.00;;;11.48;;
75104;SDS011;64778;47.314;8.466;2022-12-07T05:34:03;23.52;;;11.48;;
75104;SDS011;64778;47.314;8.466;2022-12-07T05:36:29;26.55;;;12.52;;
75104;SDS011;64778;47.314;8.466;2022-12-07T05:38:56;24.42;;;12.45;;
75104;SDS011;64778;47.314;8.466;2022-12-07T05:41:22;25.08;;;11.95;;
75104;SDS011;64778;47.314;8.466;2022-12-07T05:44:07;23.95;;;12.70;;
75104;SDS011;64778;47.314;8.466;2022-12-07T05:46:33;25.25;;;12.25;;
75104;SDS011;64778;47.314;8.466;2022-12-07T05:49:04;24.00;;;11.90;;
75104;SDS011;64778;47.314;8.466;2022-12-07T05:51:32;25.48;;;12.48;;
75104;SDS011;64778;47.314;8.466;2022-12-07T05:54:00;23.75;;;12.18;;
75104;SDS011;64778;47.314;8.466;2022-12-07T05:56:26;26.40;;;12.25;;
75104;SDS011;64778;47.314;8.466;2022-12-07T05:58:53;24.05;;;12.00;;
75104;SDS011;64778;47.314;8.466;2022-12-07T06:01:38;22.58;;;12.02;;
75104;SDS011;64778;47.314;8.466;2022-12-07T06:04:08;24.23;;;11.80;;
75104;SDS011;64778;47.314;8.466;2022-12-07T06:06:34;24.83;;;12.27;;
75104;SDS011;64778;47.314;8.466;2022-12-07T06:09:02;23.77;;;11.40;;
75104;SDS011;64778;47.314;8.466;2022-12-07T06:11:29;24.55;;;12.25;;
75104;SDS011;64778;47.314;8.466;2022-12-07T06:14:13;24.45;;;12.55;;
75104;SDS011;64778;47.314;8.466;2022-12-07T06:16:39;28.38;;;13.82;;
75104;SDS011;64778;47.314;8.466;2022-12-07T06:19:06;24.17;;;12.07;;
75104;SDS011;64778;47.314;8.466;2022-12-07T06:21:35;24.38;;;12.60;;
75104;SDS011;64778;47.314;8.466;2022-12-07T06:24:00;26.20;;;12.95;;
75104;SDS011;64778;47.314;8.466;2022-12-07T06:28:52;27.77;;;13.70;;
75104;SDS011;64778;47.314;8.466;2022-12-07T06:31:20;26.00;;;12.60;;
75104;SDS011;64778;47.314;8.466;2022-12-07T06:33:45;27.02;;;13.02;;
75104;SDS011;64778;47.314;8.466;2022-12-07T06:38:39;23.42;;;11.38;;
75104;SDS011;64778;47.314;8.466;2022-12-07T06:41:05;27.33;;;13.38;;
75104;SDS011;64778;47.314;8.466;2022-12-07T06:43:33;23.98;;;12.00;;
75104;SDS011;64778;47.314;8.466;2022-12-07T06:45:59;25.52;;;12.65;;
75104;SDS011;64778;47.314;8.466;2022-12-07T06:50:50;23.83;;;12.15;;
75104;SDS011;64778;47.314;8.466;2022-12-07T06:53:15;25.95;;;13.35;;
75104;SDS011;64778;47.314;8.466;2022-12-07T06:55:41;26.00;;;12.98;;
75104;SDS011;64778;47.314;8.466;2022-12-07T07:00:32;25.42;;;12.45;;
75104;SDS011;64778;47.314;8.466;2022-12-07T07:03:01;25.42;;;12.30;;
75104;SDS011;64778;47.314;8.466;2022-12-07T07:05:30;27.23;;;13.07;;
75104;SDS011;64778;47.314;8.466;2022-12-07T07:07:57;23.25;;;13.05;;
75104;SDS011;64778;47.314;8.466;2022-12-07T07:10:23;30.52;;;14.30;;
75104;SDS011;64778;47.314;8.466;2022-12-07T07:12:51;24.42;;;12.50;;
75104;SDS011;64778;47.314;8.466;2022-12-07T07:15:19;26.85;;;13.20;;
75104;SDS011;64778;47.314;8.466;2022-12-07T07:17:45;27.70;;;12.95;;
75104;SDS011;64778;47.314;8.466;2022-12-07T07:20:10;24.73;;;12.48;;
75104;SDS011;64778;47.314;8.466;2022-12-07T07:22:37;26.38;;;12.93;;
75104;SDS011;64778;47.314;8.466;2022-12-07T07:25:02;24.67;;;12.65;;
75104;SDS011;64778;47.314;8.466;2022-12-07T07:27:28;24.70;;;12.88;;
75104;SDS011;64778;47.314;8.466;2022-12-07T07:29:54;29.00;;;13.73;;
75104;SDS011;64778;47.314;8.466;2022-12-07T07:34:46;25.97;;;12.87;;
75104;SDS011;64778;47.314;8.466;2022-12-07T07:39:41;30.65;;;13.00;;
75104;SDS011;64778;47.314;8.466;2022-12-07T07:42:07;28.45;;;13.48;;
75104;SDS011;64778;47.314;8.466;2022-12-07T07:44:34;26.77;;;13.10;;
75104;SDS011;64778;47.314;8.466;2022-12-07T07:47:00;28.13;;;13.20;;
75104;SDS011;64778;47.314;8.466;2022-12-07T07:49:28;27.92;;;13.27;;
75104;SDS011;64778;47.314;8.466;2022-12-07T07:51:54;26.42;;;13.85;;
75104;SDS011;64778;47.314;8.466;2022-12-07T07:54:24;25.52;;;12.20;;
75104;SDS011;64778;47.314;8.466;2022-12-07T07:56:50;26.98;;;13.18;;
75104;SDS011;64778;47.314;8.466;2022-12-07T07:59:17;29.77;;;13.90;;
75104;SDS011;64778;47.314;8.466;2022-12-07T08:01:45;28.40;;;13.52;;
75104;SDS011;64778;47.314;8.466;2022-12-07T08:04:11;30.77;;;13.80;;
75104;SDS011;64778;47.314;8.466;2022-12-07T08:06:37;26.58;;;13.40;;
75104;SDS011;64778;47.314;8.466;2022-12-07T08:11:30;29.63;;;12.38;;
75104;SDS011;64778;47.314;8.466;2022-12-07T08:13:55;29.33;;;14.07;;
75104;SDS011;64778;47.314;8.466;2022-12-07T08:21:14;30.55;;;13.73;;
75104;SDS011;64778;47.314;8.466;2022-12-07T08:26:07;27.50;;;13.63;;
75104;SDS011;64778;47.314;8.466;2022-12-07T08:28:35;28.95;;;14.40;;
75104;SDS011;64778;47.314;8.466;2022-12-07T08:31:01;30.70;;;14.68;;
75104;SDS011;64778;47.314;8.466;2022-12-07T08:33:32;28.58;;;14.05;;
75104;SDS011;64778;47.314;8.466;2022-12-07T08:36:01;27.92;;;13.80;;
75104;SDS011;64778;47.314;8.466;2022-12-07T08:38:30;27.63;;;13.98;;
75104;SDS011;64778;47.314;8.466;2022-12-07T08:40:57;28.20;;;13.57;;
75104;SDS011;64778;47.314;8.466;2022-12-07T08:43:23;31.27;;;16.15;;
75104;SDS011;64778;47.314;8.466;2022-12-07T08:45:51;28.92;;;14.32;;
75104;SDS011;64778;47.314;8.466;2022-12-07T08:48:27;30.65;;;15.02;;
75104;SDS011;64778;47.314;8.466;2022-12-07T08:50:53;29.52;;;14.63;;
75104;SDS011;64778;47.314;8.466;2022-12-07T08:53:21;28.38;;;14.23;;
75104;SDS011;64778;47.314;8.466;2022-12-07T08:55:51;32.08;;;15.18;;
75104;SDS011;64778;47.314;8.466;2022-12-07T08:58:17;30.23;;;14.75;;
75104;SDS011;64778;47.314;8.466;2022-12-07T09:00:43;32.75;;;15.80;;
75104;SDS011;64778;47.314;8.466;2022-12-07T09:03:15;33.08;;;15.52;;
75104;SDS011;64778;47.314;8.466;2022-12-07T09:05:43;31.23;;;15.07;;
75104;SDS011;64778;47.314;8.466;2022-12-07T09:08:09;29.58;;;14.52;;
75104;SDS011;64778;47.314;8.466;2022-12-07T09:10:35;30.77;;;15.32;;
75104;SDS011;64778;47.314;8.466;2022-12-07T09:13:01;29.67;;;14.52;;
75104;SDS011;64778;47.314;8.466;2022-12-07T09:15:30;32.10;;;14.48;;
75104;SDS011;64778;47.314;8.466;2022-12-07T09:17:56;36.00;;;15.63;;
75104;SDS011;64778;47.314;8.466;2022-12-07T09:20:22;37.65;;;16.40;;
75104;SDS011;64778;47.314;8.466;2022-12-07T09:22:47;34.53;;;15.38;;
75104;SDS011;64778;47.314;8.466;2022-12-07T09:25:13;32.92;;;15.48;;
75104;SDS011;64778;47.314;8.466;2022-12-07T09:30:08;32.72;;;14.50;;
75104;SDS011;64778;47.314;8.466;2022-12-07T09:32:38;33.83;;;16.00;;
75104;SDS011;64778;47.314;8.466;2022-12-07T09:35:04;34.42;;;16.08;;
75104;SDS011;64778;47.314;8.466;2022-12-07T09:37:30;37.35;;;16.20;;
75104;SDS011;64778;47.314;8.466;2022-12-07T09:40:02;38.78;;;16.23;;
75104;SDS011;64778;47.314;8.466;2022-12-07T09:44:59;39.08;;;16.27;;
75104;SDS011;64778;47.314;8.466;2022-12-07T09:47:28;35.92;;;15.70;;
75104;SDS011;64778;47.314;8.466;2022-12-07T09:52:27;36.70;;;15.80;;
75104;SDS011;64778;47.314;8.466;2022-12-07T09:54:55;39.38;;;16.00;;
75104;SDS011;64778;47.314;8.466;2022-12-07T09:57:25;35.17;;;16.75;;
75104;SDS011;64778;47.314;8.466;2022-12-07T09:59:56;38.53;;;16.92;;
75104;SDS011;64778;47.314;8.466;2022-12-07T10:02:36;38.33;;;17.30;;
75104;SDS011;64778;47.314;8.466;2022-12-07T10:05:16;37.25;;;16.98;;
75104;SDS011;64778;47.314;8.466;2022-12-07T10:07:51;36.58;;;16.35;;
75104;SDS011;64778;47.314;8.466;2022-12-07T10:10:23;38.58;;;17.80;;
75104;SDS011;64778;47.314;8.466;2022-12-07T10:13:14;37.65;;;17.73;;
75104;SDS011;64778;47.314;8.466;2022-12-07T10:21:01;35.58;;;16.52;;
75104;SDS011;64778;47.314;8.466;2022-12-07T10:23:33;38.20;;;16.75;;
75104;SDS011;64778;47.314;8.466;2022-12-07T10:25:59;37.40;;;17.27;;
75104;SDS011;64778;47.314;8.466;2022-12-07T10:28:44;35.85;;;17.17;;
75104;SDS011;64778;47.314;8.466;2022-12-07T10:31:17;33.17;;;15.80;;
75104;SDS011;64778;47.314;8.466;2022-12-07T10:41:26;39.55;;;18.77;;
75104;SDS011;64778;47.314;8.466;2022-12-07T10:43:52;45.67;;;18.65;;
75104;SDS011;64778;47.314;8.466;2022-12-07T10:46:37;37.78;;;17.65;;
75104;SDS011;64778;47.314;8.466;2022-12-07T10:49:23;36.88;;;17.38;;
75104;SDS011;64778;47.314;8.466;2022-12-07T11:00:25;32.67;;;15.02;;
75104;SDS011;64778;47.314;8.466;2022-12-07T11:11:16;31.48;;;14.75;;
75104;SDS011;64778;47.314;8.466;2022-12-07T11:14:11;29.42;;;14.05;;
75104;SDS011;64778;47.314;8.466;2022-12-07T11:16:51;35.37;;;15.03;;
75104;SDS011;64778;47.314;8.466;2022-12-07T11:28:13;27.15;;;12.93;;
75104;SDS011;64778;47.314;8.466;2022-12-07T11:38:53;34.78;;;18.90;;
75104;SDS011;64778;47.314;8.466;2022-12-07T11:41:23;31.33;;;16.10;;
75104;SDS011;64778;47.314;8.466;2022-12-07T11:46:19;28.45;;;14.27;;
75104;SDS011;64778;47.314;8.466;2022-12-07T11:48:52;31.60;;;13.98;;
75104;SDS011;64778;47.314;8.466;2022-12-07T11:54:14;28.05;;;13.63;;
75104;SDS011;64778;47.314;8.466;2022-12-07T11:56:49;28.83;;;13.60;;
75104;SDS011;64778;47.314;8.466;2022-12-07T11:59:19;30.17;;;13.93;;
75104;SDS011;64778;47.314;8.466;2022-12-07T12:01:56;31.50;;;13.85;;
75104;SDS011;64778;47.314;8.466;2022-12-07T12:04:42;27.75;;;13.15;;
75104;SDS011;64778;47.314;8.466;2022-12-07T12:07:34;24.92;;;12.38;;
75104;SDS011;64778;47.314;8.466;2022-12-07T12:10:14;28.15;;;13.82;;
75104;SDS011;64778;47.314;8.466;2022-12-07T12:21:17;23.70;;;11.35;;
75104;SDS011;64778;47.314;8.466;2022-12-07T12:23:56;26.25;;;13.52;;
75104;SDS011;64778;47.314;8.466;2022-12-07T12:26:30;22.73;;;11.27;;
75104;SDS011;64778;47.314;8.466;2022-12-07T12:28:59;23.33;;;12.50;;
75104;SDS011;64778;47.314;8.466;2022-12-07T12:50:50;23.25;;;12.13;;
75104;SDS011;64778;47.314;8.466;2022-12-07T12:55:24;21.88;;;11.35;;
75104;SDS011;64778;47.314;8.466;2022-12-07T13:00:42;21.80;;;11.82;;
75104;SDS011;64778;47.314;8.466;2022-12-07T13:03:22;25.25;;;12.07;;
75104;SDS011;64778;47.314;8.466;2022-12-07T13:08:49;22.02;;;11.88;;
75104;SDS011;64778;47.314;8.466;2022-12-07T13:11:20;22.27;;;11.50;;
75104;SDS011;64778;47.314;8.466;2022-12-07T13:14:35;20.15;;;11.50;;
75104;SDS011;64778;47.314;8.466;2022-12-07T13:16:58;20.88;;;10.93;;
75104;SDS011;64778;47.314;8.466;2022-12-07T13:24:56;21.38;;;10.88;;
75104;SDS011;64778;47.314;8.466;2022-12-07T13:27:22;22.40;;;10.80;;
75104;SDS011;64778;47.314;8.466;2022-12-07T13:29:51;20.10;;;11.07;;
75104;SDS011;64778;47.314;8.466;2022-12-07T13:32:23;20.27;;;10.65;;
75104;SDS011;64778;47.314;8.466;2022-12-07T13:34:50;21.13;;;10.98;;
75104;SDS011;64778;47.314;8.466;2022-12-07T13:40:09;26.13;;;11.70;;
75104;SDS011;64778;47.314;8.466;2022-12-07T13:42:46;19.40;;;10.68;;
75104;SDS011;64778;47.314;8.466;2022-12-07T13:45:22;21.58;;;11.93;;
75104;SDS011;64778;47.314;8.466;2022-12-07T13:48:15;19.60;;;10.48;;
75104;SDS011;64778;47.314;8.466;2022-12-07T13:51:27;19.70;;;10.73;;
75104;SDS011;64778;47.314;8.466;2022-12-07T13:53:55;26.52;;;10.98;;
75104;SDS011;64778;47.314;8.466;2022-12-07T13:56:26;20.80;;;11.30;;
75104;SDS011;64778;47.314;8.466;2022-12-07T13:58:57;17.52;;;10.43;;
75104;SDS011;64778;47.314;8.466;2022-12-07T14:03:49;18.52;;;10.45;;
75104;SDS011;64778;47.314;8.466;2022-12-07T14:08:43;17.10;;;9.52;;
75104;SDS011;64778;47.314;8.466;2022-12-07T14:11:12;18.20;;;9.55;;
75104;SDS011;64778;47.314;8.466;2022-12-07T14:13:56;17.23;;;8.93;;
75104;SDS011;64778;47.314;8.466;2022-12-07T14:16:32;18.73;;;9.55;;
75104;SDS011;64778;47.314;8.466;2022-12-07T14:19:06;18.17;;;9.50;;
75104;SDS011;64778;47.314;8.466;2022-12-07T14:25:19;15.52;;;8.30;;
75104;SDS011;64778;47.314;8.466;2022-12-07T14:30:21;14.50;;;8.05;;
75104;SDS011;64778;47.314;8.466;2022-12-07T14:32:48;17.20;;;8.48;;
75104;SDS011;64778;47.314;8.466;2022-12-07T14:35:20;14.20;;;8.23;;
75104;SDS011;64778;47.314;8.466;2022-12-07T14:37:47;21.20;;;9.23;;
75104;SDS011;64778;47.314;8.466;2022-12-07T14:40:15;15.55;;;7.88;;
75104;SDS011;64778;47.314;8.466;2022-12-07T14:43:02;13.88;;;8.15;;
75104;SDS011;64778;47.314;8.466;2022-12-07T14:45:31;15.57;;;8.45;;
75104;SDS011;64778;47.314;8.466;2022-12-07T14:47:57;13.63;;;8.18;;
75104;SDS011;64778;47.314;8.466;2022-12-07T14:50:28;13.45;;;7.65;;
75104;SDS011;64778;47.314;8.466;2022-12-07T14:53:01;15.00;;;8.65;;
75104;SDS011;64778;47.314;8.466;2022-12-07T14:55:38;17.20;;;8.35;;
75104;SDS011;64778;47.314;8.466;2022-12-07T14:58:08;17.20;;;8.75;;
75104;SDS011;64778;47.314;8.466;2022-12-07T15:00:41;15.45;;;8.13;;
75104;SDS011;64778;47.314;8.466;2022-12-07T15:05:32;18.45;;;8.68;;
75104;SDS011;64778;47.314;8.466;2022-12-07T15:08:01;16.42;;;8.95;;
75104;SDS011;64778;47.314;8.466;2022-12-07T15:12:56;16.45;;;9.05;;
75104;SDS011;64778;47.314;8.466;2022-12-07T15:15:42;17.60;;;10.13;;
75104;SDS011;64778;47.314;8.466;2022-12-07T15:20:33;16.63;;;9.73;;
75104;SDS011;64778;47.314;8.466;2022-12-07T15:23:01;20.08;;;10.68;;
75104;SDS011;64778;47.314;8.466;2022-12-07T15:25:27;20.55;;;10.85;;
75104;SDS011;64778;47.314;8.466;2022-12-07T15:27:53;19.13;;;11.00;;
75104;SDS011;64778;47.314;8.466;2022-12-07T15:32:50;18.23;;;10.13;;
75104;SDS011;64778;47.314;8.466;2022-12-07T15:35:16;19.05;;;11.15;;
75104;SDS011;64778;47.314;8.466;2022-12-07T15:37:42;20.42;;;10.65;;
75104;SDS011;64778;47.314;8.466;2022-12-07T15:42:36;19.33;;;10.30;;
75104;SDS011;64778;47.314;8.466;2022-12-07T15:45:05;18.65;;;11.35;;
75104;SDS011;64778;47.314;8.466;2022-12-07T15:47:36;23.42;;;11.93;;
75104;SDS011;64778;47.314;8.466;2022-12-07T15:50:04;20.67;;;10.98;;
75104;SDS011;64778;47.314;8.466;2022-12-07T15:52:34;18.25;;;10.18;;
75104;SDS011;64778;47.314;8.466;2022-12-07T15:55:02;21.13;;;11.32;;
75104;SDS011;64778;47.314;8.466;2022-12-07T15:57:29;21.75;;;11.25;;
75104;SDS011;64778;47.314;8.466;2022-12-07T15:59:55;20.02;;;11.20;;
75104;SDS011;64778;47.314;8.466;2022-12-07T16:02:23;20.85;;;10.38;;
75104;SDS011;64778;47.314;8.466;2022-12-07T16:04:50;19.73;;;11.02;;
75104;SDS011;64778;47.314;8.466;2022-12-07T16:09:42;19.38;;;10.07;;
75104;SDS011;64778;47.314;8.466;2022-12-07T16:12:09;20.67;;;10.85;;
75104;SDS011;64778;47.314;8.466;2022-12-07T16:14:39;21.67;;;11.10;;
75104;SDS011;64778;47.314;8.466;2022-12-07T16:17:11;21.77;;;11.20;;
75104;SDS011;64778;47.314;8.466;2022-12-07T16:19:36;17.88;;;9.68;;
75104;SDS011;64778;47.314;8.466;2022-12-07T16:24:33;16.63;;;8.85;;
75104;SDS011;64778;47.314;8.466;2022-12-07T16:27:01;18.10;;;9.98;;
75104;SDS011;64778;47.314;8.466;2022-12-07T16:29:27;18.90;;;10.00;;
75104;SDS011;64778;47.314;8.466;2022-12-07T16:31:57;33.00;;;17.58;;
75104;SDS011;64778;47.314;8.466;2022-12-07T16:34:22;25.50;;;13.68;;
75104;SDS011;64778;47.314;8.466;2022-12-07T16:36:48;22.52;;;12.23;;
75104;SDS011;64778;47.314;8.466;2022-12-07T16:39:14;21.48;;;11.63;;
75104;SDS011;64778;47.314;8.466;2022-12-07T16:44:06;20.65;;;11.40;;
75104;SDS011;64778;47.314;8.466;2022-12-07T16:46:34;30.65;;;17.27;;
75104;SDS011;64778;47.314;8.466;2022-12-07T16:49:01;33.78;;;18.52;;
75104;SDS011;64778;47.314;8.466;2022-12-07T16:51:27;30.13;;;15.85;;
75104;SDS011;64778;47.314;8.466;2022-12-07T16:53:53;21.55;;;12.10;;
75104;SDS011;64778;47.314;8.466;2022-12-07T16:56:24;22.08;;;11.07;;
75104;SDS011;64778;47.314;8.466;2022-12-07T16:58:51;19.15;;;10.85;;
75104;SDS011;64778;47.314;8.466;2022-12-07T17:01:17;21.52;;;11.43;;
75104;SDS011;64778;47.314;8.466;2022-12-07T17:03:47;20.70;;;11.35;;
75104;SDS011;64778;47.314;8.466;2022-12-07T17:06:22;22.45;;;11.93;;
75104;SDS011;64778;47.314;8.466;2022-12-07T17:08:49;21.75;;;11.80;;
75104;SDS011;64778;47.314;8.466;2022-12-07T17:11:20;20.35;;;11.68;;
75104;SDS011;64778;47.314;8.466;2022-12-07T17:13:49;23.23;;;12.45;;
75104;SDS011;64778;47.314;8.466;2022-12-07T17:16:34;22.95;;;12.05;;
75104;SDS011;64778;47.314;8.466;2022-12-07T17:19:03;21.60;;;12.52;;
75104;SDS011;64778;47.314;8.466;2022-12-07T17:21:30;23.58;;;11.93;;
75104;SDS011;64778;47.314;8.466;2022-12-07T17:23:58;18.67;;;10.52;;
75104;SDS011;64778;47.314;8.466;2022-12-07T17:26:24;20.30;;;11.15;;
75104;SDS011;64778;47.314;8.466;2022-12-07T17:28:53;21.80;;;12.35;;
75104;SDS011;64778;47.314;8.466;2022-12-07T17:31:22;28.60;;;14.82;;
75104;SDS011;64778;47.314;8.466;2022-12-07T17:33:48;28.00;;;14.05;;
75104;SDS011;64778;47.314;8.466;2022-12-07T17:36:21;28.75;;;15.40;;
75104;SDS011;64778;47.314;8.466;2022-12-07T17:38:48;30.50;;;14.88;;
75104;SDS011;64778;47.314;8.466;2022-12-07T17:41:21;30.98;;;14.77;;
75104;SDS011;64778;47.314;8.466;2022-12-07T17:44:11;37.58;;;18.10;;
75104;SDS011;64778;47.314;8.466;2022-12-07T17:46:43;39.67;;;19.83;;
75104;SDS011;64778;47.314;8.466;2022-12-07T17:49:10;38.05;;;18.60;;
75104;SDS011;64778;47.314;8.466;2022-12-07T17:51:38;32.38;;;15.90;;
75104;SDS011;64778;47.314;8.466;2022-12-07T17:54:25;21.83;;;11.50;;
75104;SDS011;64778;47.314;8.466;2022-12-07T17:56:51;22.65;;;10.90;;
75104;SDS011;64778;47.314;8.466;2022-12-07T17:59:19;19.90;;;10.25;;
75104;SDS011;64778;47.314;8.466;2022-12-07T18:01:47;23.90;;;11.23;;
75104;SDS011;64778;47.314;8.466;2022-12-07T18:04:17;17.77;;;9.45;;
75104;SDS011;64778;47.314;8.466;2022-12-07T18:06:45;17.92;;;9.23;;
75104;SDS011;64778;47.314;8.466;2022-12-07T18:09:11;16.77;;;10.25;;
75104;SDS011;64778;47.314;8.466;2022-12-07T18:11:37;18.38;;;9.45;;
75104;SDS011;64778;47.314;8.466;2022-12-07T18:14:05;15.57;;;9.10;;
75104;SDS011;64778;47.314;8.466;2022-12-07T18:16:33;18.92;;;9.38;;
75104;SDS011;64778;47.314;8.466;2022-12-07T18:19:00;17.52;;;9.52;;
75104;SDS011;64778;47.314;8.466;2022-12-07T18:21:28;19.45;;;8.95;;
75104;SDS011;64778;47.314;8.466;2022-12-07T18:23:58;16.30;;;8.55;;